Time;durP1;ratioP1;P1;durP2;ratioP2;P2;SDS_P1;SDS_P2;PMS_P1;PMS_P2;Temp;Humidity;BMP_temperature;BMP_pressure;BME280_temperature;BME280_humidity;BME280_pressure;Samples;Min_cycle;Max_cycle;Signal;HPM_P1;HPM_P2
2023/02/04 00:04:47;;;;;;;30.42;4.35;;;;;;;5.42;73.56;101733.53;10358723;28;20034;-78
2023/02/04 00:09:51;;;;;;;24.55;3.33;;;;;;;5.19;74.29;101736.22;10359766;28;20488;-78
2023/02/04 00:14:53;;;;;;;30.25;4.07;;;;;;;4.95;75.30;101732.59;10342778;28;20053;-78
2023/02/04 00:19:56;;;;;;;28.08;5.28;;;;;;;5.19;74.76;101741.53;10349103;28;20058;-79
2023/02/04 00:25:01;;;;;;;29.08;4.53;;;;;;;5.15;75.14;101747.88;10359676;28;20042;-79
2023/02/04 00:30:04;;;;;;;36.33;5.57;;;;;;;5.25;75.08;101760.81;10359800;28;20042;-79
2023/02/04 00:35:08;;;;;;;35.53;5.60;;;;;;;5.32;74.59;101765.91;10362990;28;20042;-79
2023/02/04 00:40:13;;;;;;;38.50;7.70;;;;;;;5.34;74.90;101764.94;10357527;28;20077;-79
2023/02/04 00:45:16;;;;;;;39.03;4.60;;;;;;;5.10;75.81;101771.16;10360458;28;20057;-79
2023/02/04 00:50:19;;;;;;;34.75;5.13;;;;;;;5.37;74.92;101777.28;10376260;28;20049;-78
2023/02/04 00:55:23;;;;;;;34.95;5.00;;;;;;;5.56;73.91;101788.97;10383928;28;20050;-79
2023/02/04 01:00:26;;;;;;;39.50;6.47;;;;;;;5.26;74.75;101785.66;10375330;28;20050;-79
2023/02/04 01:05:29;;;;;;;32.22;4.28;;;;;;;5.06;74.60;101813.03;10362855;28;20077;-79
2023/02/04 01:10:33;;;;;;;32.50;4.97;;;;;;;5.47;74.04;101806.19;10358685;28;20089;-79
2023/02/04 01:15:36;;;;;;;31.02;4.38;;;;;;;4.83;76.18;101822.66;10328516;28;20050;-79
2023/02/04 01:20:39;;;;;;;39.15;5.20;;;;;;;5.18;75.35;101846.34;10352624;28;20039;-79
2023/02/04 01:25:43;;;;;;;35.60;4.93;;;;;;;5.25;74.95;101847.88;10363248;28;20462;-78
2023/02/04 01:30:46;;;;;;;34.50;6.28;;;;;;;5.06;75.93;101852.97;10363160;28;20158;-79
2023/02/04 01:35:49;;;;;;;26.17;7.07;;;;;;;4.99;77.26;101862.97;10374337;28;20050;-79
2023/02/04 01:40:53;;;;;;;41.42;5.47;;;;;;;4.88;78.00;101865.06;10355194;28;20054;-79
2023/02/04 01:45:57;;;;;;;45.58;5.78;;;;;;;4.54;79.45;101879.50;10369623;28;20046;-79
2023/02/04 01:51:04;;;;;;;31.60;5.20;;;;;;;5.06;77.96;101872.47;10372106;28;20050;-77
2023/02/04 01:56:16;;;;;;;41.75;6.03;;;;;;;5.15;77.72;101875.75;10367186;28;20050;-78
2023/02/04 02:01:37;;;;;;;34.92;4.95;;;;;;;4.82;77.90;101881.25;10374490;28;20049;-79
2023/02/04 02:06:43;;;;;;;22.33;4.93;;;;;;;5.15;77.26;101892.59;10357740;28;20492;-78
2023/02/04 02:11:48;;;;;;;33.60;4.32;;;;;;;4.91;77.01;101896.06;10362106;28;20528;-78
2023/02/04 02:16:51;;;;;;;26.65;4.68;;;;;;;5.22;76.13;101906.59;10350997;28;20041;-78
2023/02/04 02:22:02;;;;;;;35.75;5.78;;;;;;;5.21;76.59;101918.16;10347683;28;20081;-78
2023/02/04 02:27:09;;;;;;;44.08;4.50;;;;;;;5.38;76.08;101936.25;10368232;28;20445;-78
2023/02/04 02:32:14;;;;;;;36.50;4.90;;;;;;;5.46;75.96;101955.53;10354579;28;20077;-78
2023/02/04 02:37:16;;;;;;;38.95;6.25;;;;;;;5.44;76.37;101960.91;10378243;28;20045;-78
2023/02/04 02:42:21;;;;;;;35.72;6.05;;;;;;;5.38;76.31;101962.91;10376374;28;20060;-78
2023/02/04 02:47:24;;;;;;;36.53;5.38;;;;;;;5.28;76.20;101976.53;10363160;28;20081;-78
2023/02/04 02:52:27;;;;;;;33.45;5.15;;;;;;;5.12;75.59;101971.75;10366431;28;20469;-78
2023/02/04 02:57:32;;;;;;;31.85;4.30;;;;;;;4.86;74.30;101970.81;10353518;28;20126;-78
2023/02/04 03:02:35;;;;;;;30.02;4.25;;;;;;;5.23;72.98;101969.63;10355076;28;20057;-78
2023/02/04 03:07:38;;;;;;;25.17;3.95;;;;;;;5.20;72.20;101975.91;10366961;28;20062;-78
2023/02/04 03:12:42;;;;;;;19.80;2.83;;;;;;;4.93;71.79;101969.66;10355585;28;20038;-78
2023/02/04 03:17:46;;;;;;;23.50;3.85;;;;;;;5.17;71.93;101981.34;10339620;28;20104;-77
2023/02/04 03:22:49;;;;;;;22.85;4.35;;;;;;;5.21;71.93;101987.44;10386249;28;20052;-77
2023/02/04 03:27:54;;;;;;;29.42;3.53;;;;;;;5.23;71.64;102007.78;10373253;28;20046;-79
2023/02/04 03:32:58;;;;;;;20.67;3.17;;;;;;;5.26;72.00;102014.81;10354903;28;20077;-80
2023/02/04 03:38:00;;;;;;;19.17;2.70;;;;;;;5.25;71.97;102015.75;10342720;28;20035;-79
2023/02/04 03:43:04;;;;;;;22.45;3.33;;;;;;;5.23;71.43;102033.56;10369289;28;20057;-79
2023/02/04 03:48:07;;;;;;;20.55;2.90;;;;;;;5.21;71.53;102036.28;10352519;28;20045;-79
2023/02/04 03:53:10;;;;;;;18.40;3.75;;;;;;;5.15;71.62;102041.78;10360065;28;20096;-79
2023/02/04 03:58:14;;;;;;;16.38;2.00;;;;;;;5.05;70.78;102051.03;10345273;28;20038;-79
2023/02/04 04:03:17;;;;;;;20.65;2.22;;;;;;;4.89;70.14;102053.25;10358130;28;20073;-79
2023/02/04 04:08:20;;;;;;;17.58;2.97;;;;;;;4.72;69.52;102060.91;10360888;28;20043;-79
2023/02/04 04:13:24;;;;;;;16.52;1.95;;;;;;;4.73;69.53;102084.78;10359481;28;20073;-79
2023/02/04 04:18:27;;;;;;;12.13;1.88;;;;;;;4.73;69.45;102095.44;10369079;28;20077;-80
2023/02/04 04:23:30;;;;;;;13.48;1.50;;;;;;;4.80;68.98;102097.03;10339975;28;20049;-79
2023/02/04 04:28:34;;;;;;;10.27;1.65;;;;;;;4.81;69.06;102108.53;10356199;28;20490;-79
2023/02/04 04:33:37;;;;;;;14.75;2.00;;;;;;;4.78;69.09;102124.59;10357768;28;20054;-78
2023/02/04 04:38:40;;;;;;;12.73;1.33;;;;;;;4.71;69.01;102126.56;10348061;28;20046;-79
2023/02/04 04:43:44;;;;;;;12.25;1.27;;;;;;;4.59;68.94;102125.13;10339711;28;20085;-79
2023/02/04 04:48:47;;;;;;;8.75;1.42;;;;;;;4.53;69.38;102132.41;10366494;28;20045;-79
2023/02/04 04:53:49;;;;;;;10.50;1.88;;;;;;;4.52;69.51;102131.53;10355703;28;20093;-79
2023/02/04 04:58:54;;;;;;;4.95;1.20;;;;;;;4.49;69.58;102147.56;10347206;28;20544;-78
2023/02/04 05:03:56;;;;;;;10.55;1.77;;;;;;;4.47;69.83;102162.75;10339662;28;20138;-78
2023/02/04 05:08:59;;;;;;;10.20;1.52;;;;;;;4.42;70.02;102167.31;10358247;28;20085;-78
2023/02/04 05:14:04;;;;;;;10.68;1.75;;;;;;;4.39;70.30;102172.72;10353852;28;20148;-79
2023/02/04 05:19:07;;;;;;;10.13;1.40;;;;;;;4.36;70.54;102165.69;10350498;28;20096;-78
2023/02/04 05:24:10;;;;;;;10.40;1.92;;;;;;;4.28;70.71;102173.00;10368895;28;20045;-78
2023/02/04 05:29:14;;;;;;;10.88;1.48;;;;;;;4.25;71.11;102170.44;10361034;28;20085;-78
2023/02/04 05:34:17;;;;;;;10.73;1.67;;;;;;;4.16;71.45;102183.94;10362181;28;20054;-77
2023/02/04 05:39:20;;;;;;;12.10;2.00;;;;;;;4.16;71.58;102189.25;10353332;28;20096;-78
2023/02/04 05:44:24;;;;;;;7.15;1.88;;;;;;;4.12;71.73;102198.25;10357143;28;20074;-78
2023/02/04 05:49:29;;;;;;;10.20;1.95;;;;;;;4.10;72.12;102206.25;10352433;28;20041;-78
2023/02/04 05:54:32;;;;;;;9.93;1.63;;;;;;;3.99;72.04;102218.94;10359568;28;20085;-77
2023/02/04 05:59:36;;;;;;;16.38;2.00;;;;;;;3.94;72.31;102228.81;10356675;28;20039;-78
2023/02/04 06:04:39;;;;;;;6.30;1.45;;;;;;;3.89;72.50;102222.72;10368662;28;20073;-77
2023/02/04 06:09:42;;;;;;;4.28;1.80;;;;;;;3.89;72.58;102228.91;10363630;28;20034;-78
2023/02/04 06:14:46;;;;;;;10.55;2.30;;;;;;;3.88;72.63;102232.50;10357707;28;20046;-77
2023/02/04 06:19:49;;;;;;;9.23;2.13;;;;;;;3.87;72.72;102241.41;10354359;28;20054;-77
2023/02/04 06:24:51;;;;;;;8.00;1.70;;;;;;;3.87;72.73;102252.03;10350867;28;20069;-79
2023/02/04 06:29:56;;;;;;;12.13;2.00;;;;;;;3.83;72.69;102263.63;10352823;28;20051;-78
2023/02/04 06:34:58;;;;;;;11.93;1.80;;;;;;;3.81;72.80;102270.75;10363151;28;20038;-78
2023/02/04 06:40:02;;;;;;;6.15;1.52;;;;;;;3.78;72.93;102277.94;10364276;28;20103;-80
2023/02/04 06:45:07;;;;;;;13.55;2.78;;;;;;;3.72;72.76;102274.50;10367261;28;20539;-79
2023/02/04 06:50:11;;;;;;;10.25;2.00;;;;;;;3.71;73.03;102291.38;10348430;28;20102;-79
2023/02/04 06:55:14;;;;;;;12.55;2.40;;;;;;;3.71;72.91;102314.44;10364419;28;20390;-79
2023/02/04 07:00:19;;;;;;;11.57;2.08;;;;;;;3.65;72.83;102307.47;10364427;28;20062;-78
2023/02/04 07:05:22;;;;;;;10.73;4.15;;;;;;;3.59;72.88;102312.91;10364431;28;20038;-79
2023/02/04 07:10:24;;;;;;;11.85;2.83;;;;;;;3.54;72.86;102321.88;10371085;28;20141;-78
2023/02/04 07:15:29;;;;;;;10.35;3.20;;;;;;;3.52;73.10;102329.03;10359400;28;20081;-79
2023/02/04 07:20:32;;;;;;;10.52;3.40;;;;;;;3.52;73.02;102326.38;10354559;28;20042;-78
2023/02/04 07:25:37;;;;;;;8.48;3.70;;;;;;;3.56;72.99;102328.03;10356230;28;20121;-79
2023/02/04 07:30:41;;;;;;;7.90;2.45;;;;;;;3.65;72.80;102339.38;10362277;28;20081;-79
2023/02/04 07:35:45;;;;;;;9.07;2.63;;;;;;;3.67;72.42;102336.66;10329975;28;20061;-78
2023/02/04 07:40:48;;;;;;;5.32;0.90;;;;;;;3.55;72.38;102342.25;10326739;28;20177;-79
2023/02/04 07:45:53;;;;;;;11.82;4.18;;;;;;;3.70;73.27;102352.53;10323902;28;20050;-79
2023/02/04 07:50:55;;;;;;;6.32;2.05;;;;;;;4.15;73.14;102363.09;10329431;28;20153;-78
2023/02/04 07:55:58;;;;;;;4.95;1.77;;;;;;;4.68;70.82;102365.38;10344408;28;20121;-77
2023/02/04 08:01:02;;;;;;;7.40;1.92;;;;;;;5.14;68.37;102373.09;10336401;28;20049;-77
2023/02/04 08:06:05;;;;;;;5.47;2.20;;;;;;;5.88;66.50;102381.72;10330447;28;20058;-78
2023/02/04 08:11:08;;;;;;;9.32;2.25;;;;;;;6.50;64.60;102386.00;10318391;28;20050;-78
2023/02/04 08:16:12;;;;;;;6.60;2.95;;;;;;;7.00;62.57;102387.03;10328985;28;20501;-78
2023/02/04 08:21:15;;;;;;;4.80;3.08;;;;;;;7.09;60.45;102390.31;10314053;28;20074;-76
2023/02/04 08:26:21;;;;;;;5.68;2.80;;;;;;;7.13;60.28;102389.28;10322578;28;20054;-77
2023/02/04 08:31:25;;;;;;;8.70;2.55;;;;;;;7.03;59.64;102389.59;10315783;28;20056;-78
2023/02/04 08:36:28;;;;;;;11.27;2.83;;;;;;;6.83;59.17;102406.28;10317521;28;20123;-79
2023/02/04 08:41:32;;;;;;;5.97;2.53;;;;;;;6.49;60.77;102418.97;10322004;28;20061;-79
2023/02/04 08:46:36;;;;;;;7.95;3.35;;;;;;;6.74;59.79;102408.38;10329662;28;20154;-78
2023/02/04 08:51:39;;;;;;;8.90;3.00;;;;;;;6.37;60.42;102429.13;10336115;28;20131;-79
2023/02/04 08:56:42;;;;;;;5.65;2.80;;;;;;;6.78;59.45;102431.41;10339464;28;20053;-79
2023/02/04 09:01:48;;;;;;;4.95;2.22;;;;;;;7.38;57.48;102440.13;10330694;28;20046;-78
2023/02/04 09:06:52;;;;;;;4.20;2.50;;;;;;;8.16;54.74;102448.81;10336910;28;20144;-78
2023/02/04 09:11:55;;;;;;;4.03;2.05;;;;;;;8.28;52.47;102441.25;10323220;28;20049;-78
2023/02/04 09:17:00;;;;;;;6.07;2.00;;;;;;;7.97;54.13;102444.22;10335591;28;20065;-79
2023/02/04 09:22:02;;;;;;;2.63;1.90;;;;;;;7.72;53.80;102453.16;10339970;28;20073;-79
2023/02/04 09:27:05;;;;;;;2.97;1.77;;;;;;;7.54;54.55;102460.03;10338332;28;20104;-79
2023/02/04 09:32:10;;;;;;;2.75;1.63;;;;;;;6.94;55.92;102469.19;10339662;28;20099;-79
2023/02/04 09:37:12;;;;;;;5.90;2.55;;;;;;;6.79;56.83;102467.88;10315352;28;20421;-79
2023/02/04 09:42:16;;;;;;;2.78;1.80;;;;;;;6.70;58.72;102477.06;10326197;28;20070;-79
2023/02/04 09:47:23;;;;;;;2.95;2.28;;;;;;;7.50;55.84;102480.66;10339935;28;20042;-80
2023/02/04 09:52:28;;;;;;;4.13;1.95;;;;;;;8.18;54.29;102480.91;10343507;28;20128;-78
2023/02/04 09:57:31;;;;;;;5.05;2.22;;;;;;;9.25;52.04;102471.25;10347978;28;20057;-79
2023/02/04 10:02:35;;;;;;;2.88;1.55;;;;;;;9.44;49.40;102481.22;10351089;28;20071;-80
2023/02/04 10:07:38;;;;;;;4.22;1.80;;;;;;;9.22;49.30;102486.63;10351434;28;20042;-79
2023/02/04 10:12:41;;;;;;;1.70;1.60;;;;;;;8.88;48.53;102497.84;10348764;28;20111;-80
2023/02/04 10:18:34;;;;;;;4.45;1.60;;;;;;;8.71;49.97;102498.53;11469017;23;20524;-78
2023/02/04 10:23:39;;;;;;;1.80;1.40;;;;;;;9.79;48.05;102516.34;10360441;28;20050;-76
2023/02/04 10:28:44;;;;;;;2.05;1.40;;;;;;;10.64;46.80;102513.41;10334670;28;20476;-76
2023/02/04 10:33:47;;;;;;;4.18;1.80;;;;;;;10.87;45.78;102513.19;10314676;28;20030;-77
2023/02/04 10:39:01;;;;;;;2.55;1.50;;;;;;;10.86;44.73;102510.56;10331601;28;20043;-77
2023/02/04 10:44:05;;;;;;;5.30;2.05;;;;;;;11.04;44.96;102504.28;10319226;28;20125;-76
2023/02/04 10:49:18;;;;;;;2.13;1.58;;;;;;;11.97;43.15;102504.00;10318980;28;20067;-77
2023/02/04 10:54:32;;;;;;;2.55;1.23;;;;;;;12.65;40.93;102514.69;10310417;28;20158;-78
2023/02/04 10:59:36;;;;;;;2.10;1.52;;;;;;;12.78;41.09;102514.84;10328124;28;20088;-78
2023/02/04 11:04:39;;;;;;;3.95;2.78;;;;;;;14.03;39.18;102516.50;10323127;28;20082;-77
2023/02/04 11:09:44;;;;;;;2.30;1.55;;;;;;;14.67;38.32;102503.44;10306461;28;20108;-77
2023/02/04 11:14:55;;;;;;;1.80;1.48;;;;;;;14.09;38.35;102503.47;10315180;28;20042;-79
2023/02/04 11:19:59;;;;;;;1.88;1.70;;;;;;;14.60;38.66;102503.00;10315245;28;20042;-77
2023/02/04 11:25:04;;;;;;;2.40;1.55;;;;;;;15.69;34.99;102495.72;10328222;28;20529;-79
2023/02/04 11:30:19;;;;;;;2.47;1.67;;;;;;;16.87;34.35;102498.09;10320732;28;20517;-78
2023/02/04 11:35:24;;;;;;;1.85;1.70;;;;;;;15.66;35.21;102506.75;10315220;28;20090;-78
2023/02/04 11:40:31;;;;;;;1.50;1.40;;;;;;;16.48;34.74;102502.75;10315520;28;20035;-78
2023/02/04 11:45:36;;;;;;;1.58;1.48;;;;;;;14.08;36.84;102509.84;10321806;28;20050;-77
2023/02/04 11:50:40;;;;;;;2.63;1.33;;;;;;;11.99;40.72;102512.91;10324377;28;20074;-79
2023/02/04 11:55:46;;;;;;;3.63;1.30;;;;;;;11.32;41.34;102516.38;10316452;28;20528;-78
2023/02/04 12:00:50;;;;;;;2.05;1.55;;;;;;;13.39;38.66;102505.94;10321087;28;20046;-78
2023/02/04 12:05:54;;;;;;;1.40;1.30;;;;;;;13.04;37.84;102513.38;10330505;28;20050;-79
2023/02/04 12:11:06;;;;;;;2.05;1.38;;;;;;;12.97;38.36;102510.19;10317100;28;20039;-77
2023/02/04 12:16:09;;;;;;;3.47;1.30;;;;;;;13.67;37.49;102509.69;10319094;28;20054;-77
2023/02/04 12:21:13;;;;;;;1.77;1.20;;;;;;;14.08;36.17;102519.78;10315981;28;20506;-78
2023/02/04 12:26:17;;;;;;;1.98;1.15;;;;;;;14.36;36.25;102521.63;10330794;28;20049;-76
2023/02/04 12:31:20;;;;;;;1.20;1.00;;;;;;;15.11;34.65;102522.19;10333650;28;20086;-78
2023/02/04 12:36:23;;;;;;;2.47;1.40;;;;;;;15.36;34.48;102532.28;10327500;28;20413;-78
2023/02/04 12:41:27;;;;;;;0.88;0.85;;;;;;;15.07;34.28;102534.19;10322353;28;20066;-78
2023/02/04 12:46:30;;;;;;;1.75;1.35;;;;;;;13.22;38.01;102547.41;10325249;28;20086;-76
2023/02/04 12:51:33;;;;;;;1.75;1.20;;;;;;;13.53;37.58;102534.81;10323582;28;20049;-77
2023/02/04 12:56:37;;;;;;;2.70;1.30;;;;;;;13.76;37.63;102533.44;10314722;28;20039;-77
2023/02/04 13:01:40;;;;;;;2.63;1.55;;;;;;;14.00;36.77;102538.31;10330437;28;20041;-78
2023/02/04 13:06:42;;;;;;;1.13;0.90;;;;;;;13.15;38.44;102543.31;10344974;28;20042;-79
2023/02/04 13:11:47;;;;;;;2.20;1.65;;;;;;;13.42;37.18;102543.56;10340400;28;20042;-78
2023/02/04 13:16:49;;;;;;;1.45;1.10;;;;;;;13.30;37.52;102527.16;10326970;28;20074;-77
2023/02/04 13:21:52;;;;;;;1.50;1.27;;;;;;;12.89;38.70;102519.66;10333718;28;20057;-77
2023/02/04 13:26:57;;;;;;;1.88;1.15;;;;;;;11.95;40.19;102516.69;10331688;28;20050;-78
2023/02/04 13:31:59;;;;;;;2.58;1.20;;;;;;;12.02;40.29;102528.88;10329596;28;20077;-77
2023/02/04 13:37:02;;;;;;;2.25;1.50;;;;;;;12.32;39.31;102526.41;10313537;28;20043;-78
2023/02/04 13:42:07;;;;;;;1.60;1.35;;;;;;;12.48;39.81;102518.34;10326696;28;20049;-77
2023/02/04 13:47:09;;;;;;;2.38;1.15;;;;;;;12.62;39.55;102527.50;10339142;28;20047;-77
2023/02/04 13:52:13;;;;;;;1.65;1.02;;;;;;;12.05;40.05;102536.81;10343936;28;20063;-78
2023/02/04 13:57:17;;;;;;;5.63;1.23;;;;;;;11.27;41.48;102532.75;10319931;28;20043;-76
2023/02/04 14:02:22;;;;;;;2.30;1.27;;;;;;;10.76;42.75;102531.66;10321400;28;20539;-76
2023/02/04 14:07:26;;;;;;;2.05;1.33;;;;;;;10.87;42.93;102547.28;10314695;28;20050;-76
2023/02/04 14:12:30;;;;;;;3.00;1.23;;;;;;;11.05;41.42;102536.50;10324505;28;20046;-77
2023/02/04 14:17:33;;;;;;;1.63;1.20;;;;;;;10.16;43.24;102550.56;10327811;28;20465;-76
2023/02/04 14:22:36;;;;;;;1.75;1.40;;;;;;;9.47;44.81;102537.44;10321141;28;20046;-75
2023/02/04 14:27:41;;;;;;;2.13;1.55;;;;;;;9.59;45.48;102536.88;10325250;28;20065;-77
2023/02/04 14:32:44;;;;;;;1.58;1.48;;;;;;;9.99;44.58;102542.38;10347983;28;20076;-77
2023/02/04 14:37:47;;;;;;;2.17;1.60;;;;;;;10.11;44.45;102541.81;10324100;28;20066;-78
2023/02/04 14:42:51;;;;;;;2.28;1.33;;;;;;;10.93;42.75;102550.53;10321799;28;20434;-78
2023/02/04 14:47:55;;;;;;;2.65;1.20;;;;;;;10.30;42.91;102556.16;10329080;28;20050;-77
2023/02/04 14:52:59;;;;;;;2.05;1.25;;;;;;;10.17;43.10;102555.88;10336308;28;20121;-79
2023/02/04 14:58:03;;;;;;;2.95;1.98;;;;;;;9.66;44.19;102550.94;10325953;28;20070;-79
2023/02/04 15:03:06;;;;;;;2.38;1.60;;;;;;;9.43;44.66;102546.53;10326963;28;20050;-78
2023/02/04 15:08:09;;;;;;;1.85;1.48;;;;;;;9.53;44.76;102541.66;10327964;28;20034;-78
2023/02/04 15:13:13;;;;;;;1.23;1.08;;;;;;;9.41;44.54;102553.78;10333816;28;20129;-78
2023/02/04 15:18:16;;;;;;;2.17;1.70;;;;;;;8.74;45.50;102555.56;10335757;28;20057;-75
2023/02/04 15:23:19;;;;;;;2.67;1.30;;;;;;;8.40;46.67;102562.16;10321850;28;20054;-76
2023/02/04 15:28:23;;;;;;;1.33;1.17;;;;;;;8.12;47.13;102558.78;10315246;28;20046;-78
2023/02/04 15:33:26;;;;;;;4.40;1.52;;;;;;;7.83;47.89;102557.13;10323324;28;20070;-78
2023/02/04 15:45:31;;;;;;;2.00;1.80;;;;;;;7.35;49.58;102557.84;10331082;28;20034;-79
2023/02/04 15:50:34;;;;;;;2.70;2.10;;;;;;;7.14;50.05;102562.13;10329288;28;20043;-79
2023/02/04 15:55:37;;;;;;;;;;;;;;;6.94;50.37;102563.63;10320340;28;20045;-79
2023/02/04 16:00:41;;;;;;;1.70;1.60;;;;;;;6.75;50.35;102562.41;10322594;28;20428;-78
2023/02/04 16:05:43;;;;;;;2.50;2.30;;;;;;;6.51;50.97;102561.34;10327254;28;20515;-78
2023/02/04 16:10:46;;;;;;;2.28;1.83;;;;;;;6.43;51.44;102572.25;10318092;28;20072;-79
2023/02/04 16:15:51;;;;;;;2.72;2.30;;;;;;;6.32;52.11;102575.22;10312449;28;20051;-79
2023/02/04 16:20:54;;;;;;;3.38;2.70;;;;;;;6.15;52.80;102575.69;10327906;28;20562;-78
2023/02/04 16:25:58;;;;;;;3.33;2.40;;;;;;;6.08;52.94;102582.09;10307330;28;20117;-79
2023/02/04 16:31:02;;;;;;;3.28;2.60;;;;;;;6.07;53.24;102582.16;10319455;28;20476;-79
2023/02/04 16:36:09;;;;;;;3.53;2.30;;;;;;;6.02;53.35;102573.41;10317293;28;20059;-79
2023/02/04 16:41:13;;;;;;;3.80;1.95;;;;;;;5.87;53.71;102578.25;10291596;28;20046;-78
2023/02/04 16:46:17;;;;;;;3.30;1.77;;;;;;;5.86;54.13;102573.81;10286434;28;20054;-78
2023/02/04 16:51:20;;;;;;;3.85;2.22;;;;;;;5.80;54.58;102579.31;10278360;28;20058;-78
2023/02/04 16:56:23;;;;;;;4.20;3.05;;;;;;;5.79;54.83;102584.66;10284205;28;20066;-78
2023/02/04 17:01:28;;;;;;;4.10;2.58;;;;;;;5.79;54.93;102593.56;10273503;28;20050;-78
2023/02/04 17:06:34;;;;;;;4.70;3.00;;;;;;;5.80;55.61;102599.78;10280179;28;20077;-78
2023/02/04 17:11:37;;;;;;;7.13;4.07;;;;;;;5.79;55.97;102604.25;10287136;28;20144;-78
2023/02/04 17:16:42;;;;;;;10.15;3.80;;;;;;;5.73;56.16;102599.03;10283229;28;20043;-78
2023/02/04 17:21:45;;;;;;;5.97;4.05;;;;;;;5.68;56.37;102601.84;10298893;28;20052;-78
2023/02/04 17:26:48;;;;;;;7.65;5.40;;;;;;;5.59;56.71;102609.19;10297065;28;20051;-78
2023/02/04 17:31:52;;;;;;;6.38;5.57;;;;;;;5.50;57.14;102608.50;10289281;28;20133;-78
2023/02/04 17:36:55;;;;;;;7.88;5.78;;;;;;;5.49;57.44;102609.41;10290571;28;20050;-78
2023/02/04 17:41:58;;;;;;;9.35;5.97;;;;;;;5.42;57.76;102612.25;10280143;28;20054;-78
2023/02/04 17:47:02;;;;;;;10.48;6.68;;;;;;;5.36;57.90;102615.97;10285955;28;20046;-79
2023/02/04 17:52:06;;;;;;;8.82;6.20;;;;;;;5.22;58.16;102626.06;10290923;28;20061;-78
2023/02/04 17:57:16;;;;;;;11.00;6.25;;;;;;;5.13;58.68;102620.94;10284325;28;20137;-78
2023/02/04 18:02:25;;;;;;;10.07;6.35;;;;;;;4.98;58.57;102616.78;10293379;28;20056;-78
2023/02/04 18:07:28;;;;;;;8.98;6.43;;;;;;;4.91;58.86;102617.81;10296509;28;20046;-78
2023/02/04 18:12:31;;;;;;;7.55;5.60;;;;;;;4.89;59.19;102620.53;10289839;28;20398;-79
2023/02/04 18:17:35;;;;;;;6.78;4.78;;;;;;;4.81;59.15;102614.50;10284014;28;20053;-79
2023/02/04 18:22:38;;;;;;;6.55;3.63;;;;;;;4.58;59.25;102617.63;10276404;28;20080;-79
2023/02/04 18:27:41;;;;;;;6.65;3.90;;;;;;;4.43;59.62;102608.19;10271527;28;21613;-78
2023/02/04 18:32:46;;;;;;;4.80;3.60;;;;;;;4.27;59.83;102609.38;10285825;28;20154;-78
2023/02/04 18:37:51;;;;;;;4.15;3.38;;;;;;;4.20;60.02;102608.66;10268406;28;20043;-77
2023/02/04 18:43:05;;;;;;;6.28;3.85;;;;;;;4.15;59.89;102615.84;10278697;28;20054;-77
2023/02/04 18:48:54;;;;;;;4.05;2.80;;;;;;;4.11;59.69;102616.78;10284044;28;20046;-78
2023/02/04 18:54:00;;;;;;;3.53;2.92;;;;;;;4.12;59.70;102619.41;10282455;28;20058;-78
2023/02/04 18:59:13;;;;;;;3.72;2.88;;;;;;;4.02;60.01;102627.59;10281354;28;20621;-78
2023/02/04 19:04:19;;;;;;;;;;;;;;;3.97;60.17;102632.13;10290327;28;20110;-77
2023/02/04 19:09:25;;;;;;;4.50;3.03;;;;;;;3.93;60.14;102639.28;10290524;28;19926;-78
2023/02/04 19:14:36;;;;;;;4.28;3.22;;;;;;;3.83;60.95;102650.97;10286182;28;20069;-78
2023/02/04 19:19:42;;;;;;;4.57;3.55;;;;;;;3.80;61.03;102653.69;10290064;28;20042;-77
2023/02/04 19:24:47;;;;;;;6.13;4.15;;;;;;;3.75;61.09;102661.72;10289202;28;20050;-76
2023/02/04 19:29:50;;;;;;;6.65;4.22;;;;;;;3.74;61.27;102662.63;10283326;28;20050;-77
2023/02/04 19:34:57;;;;;;;3.97;3.40;;;;;;;3.67;61.28;102647.69;10290073;28;20050;-78
2023/02/04 19:40:01;;;;;;;5.88;3.67;;;;;;;3.55;61.63;102648.75;10302944;28;20086;-79
2023/02/04 19:45:18;;;;;;;6.70;4.72;;;;;;;3.42;61.83;102640.09;10287577;28;20053;-77
2023/02/04 19:50:24;;;;;;;9.88;5.55;;;;;;;3.38;62.20;102632.22;10289259;28;20072;-77
2023/02/04 19:55:32;;;;;;;6.13;5.07;;;;;;;3.34;62.38;102647.28;10287505;28;20046;-78
2023/02/04 20:00:43;;;;;;;7.75;5.97;;;;;;;3.25;62.65;102647.44;10285717;28;21209;-78
2023/02/04 20:05:46;;;;;;;8.50;5.43;;;;;;;3.15;62.72;102640.50;10285306;28;20105;-79
2023/02/04 20:10:50;;;;;;;5.55;4.95;;;;;;;3.10;63.07;102655.63;10274361;28;20410;-79
2023/02/04 20:16:02;;;;;;;10.43;5.30;;;;;;;3.10;63.16;102650.28;10282520;28;20056;-78
2023/02/04 20:21:10;;;;;;;7.97;5.15;;;;;;;3.02;63.24;102648.66;10280460;28;20054;-78
2023/02/04 20:26:15;;;;;;;8.80;4.50;;;;;;;2.93;63.54;102648.75;10281268;28;21648;-77
2023/02/04 20:31:24;;;;;;;8.07;4.97;;;;;;;2.86;63.73;102649.75;10280644;28;20112;-78
2023/02/04 20:36:37;;;;;;;7.03;4.57;;;;;;;2.87;63.55;102642.66;10288212;28;21199;-78
2023/02/04 20:41:42;;;;;;;6.32;4.25;;;;;;;2.86;63.66;102652.41;10287560;28;21171;-78
2023/02/04 20:46:45;;;;;;;8.27;5.15;;;;;;;2.92;63.74;102638.16;10303967;28;20178;-79
2023/02/04 20:51:48;;;;;;;9.82;5.68;;;;;;;2.93;63.58;102627.50;10302650;28;20050;-77
2023/02/04 20:56:52;;;;;;;7.30;4.97;;;;;;;2.83;63.76;102610.84;10308135;28;20105;-77
2023/02/04 21:01:55;;;;;;;6.63;4.75;;;;;;;2.74;64.06;102612.72;10285646;28;20050;-78
2023/02/04 21:07:01;;;;;;;5.00;4.38;;;;;;;2.73;63.99;102610.97;10288234;28;20412;-78
2023/02/04 21:12:06;;;;;;;8.52;5.00;;;;;;;2.65;64.12;102608.41;10287524;28;20081;-78
2023/02/04 21:17:09;;;;;;;6.50;4.38;;;;;;;2.65;63.90;102604.88;10263427;28;20049;-78
2023/02/04 21:22:12;;;;;;;6.15;4.18;;;;;;;2.65;63.86;102596.91;10293474;28;20085;-78
2023/02/04 21:27:20;;;;;;;8.65;4.75;;;;;;;2.63;64.00;102604.00;10270326;28;20062;-78
2023/02/04 21:32:24;;;;;;;6.57;3.85;;;;;;;2.60;63.91;102613.75;10271402;28;20057;-77
2023/02/04 21:37:27;;;;;;;4.65;3.97;;;;;;;2.63;64.01;102618.16;10292979;28;20118;-78
2023/02/04 21:42:31;;;;;;;4.35;3.92;;;;;;;2.62;63.92;102619.06;10285074;28;20797;-79
2023/02/04 21:47:34;;;;;;;9.07;4.35;;;;;;;2.57;63.91;102618.25;10301839;28;20057;-79
2023/02/04 21:52:37;;;;;;;9.32;6.22;;;;;;;2.52;64.17;102612.06;10293583;28;20043;-78
2023/02/04 21:57:42;;;;;;;9.30;5.43;;;;;;;2.46;64.21;102610.38;10316414;28;20145;-80
2023/02/04 22:02:45;;;;;;;7.50;4.97;;;;;;;2.44;64.22;102606.88;10321203;28;20047;-79
2023/02/04 22:07:49;;;;;;;6.28;4.68;;;;;;;2.36;64.34;102592.81;10327353;28;20066;-79
2023/02/04 22:12:53;;;;;;;6.70;5.10;;;;;;;2.41;64.32;102609.53;10329066;28;20042;-78
2023/02/04 22:17:56;;;;;;;10.95;5.85;;;;;;;2.34;64.42;102613.19;10335131;28;20073;-79
2023/02/04 22:22:59;;;;;;;9.10;6.05;;;;;;;2.30;64.71;102601.69;10338904;28;20042;-79
2023/02/04 22:28:04;;;;;;;10.75;5.38;;;;;;;2.24;64.69;102595.59;10335769;28;20104;-77
2023/02/04 22:33:07;;;;;;;9.00;6.75;;;;;;;2.27;64.63;102583.16;10326255;28;20046;-78
2023/02/04 22:38:10;;;;;;;10.45;5.95;;;;;;;2.16;64.83;102582.41;10338171;28;20421;-79
2023/02/04 22:43:14;;;;;;;8.13;4.88;;;;;;;2.11;65.07;102577.19;10342987;28;20042;-76
2023/02/04 22:48:17;;;;;;;7.45;5.30;;;;;;;2.06;65.10;102580.78;10344007;28;20042;-77
2023/02/04 22:53:19;;;;;;;7.65;5.15;;;;;;;2.08;65.12;102585.16;10336717;28;20054;-79
2023/02/04 22:58:23;;;;;;;7.53;5.25;;;;;;;2.12;64.87;102572.75;10332019;28;20082;-79
2023/02/04 23:03:26;;;;;;;8.90;5.88;;;;;;;2.11;65.02;102576.28;10317937;28;20042;-79
2023/02/04 23:08:29;;;;;;;7.72;5.22;;;;;;;2.10;64.92;102575.41;10316914;28;20070;-77
2023/02/04 23:13:33;;;;;;;6.45;5.13;;;;;;;2.08;64.97;102579.84;10305073;28;20097;-79
2023/02/04 23:18:36;;;;;;;7.72;4.97;;;;;;;2.10;65.02;102595.75;10332112;28;20112;-79
2023/02/04 23:23:39;;;;;;;8.48;5.10;;;;;;;2.20;64.68;102585.94;10322795;28;20073;-79
2023/02/04 23:28:43;;;;;;;6.43;5.13;;;;;;;2.14;64.52;102571.84;10318839;28;20077;-78
2023/02/04 23:33:46;;;;;;;11.65;7.70;;;;;;;2.21;64.61;102579.72;10326150;28;20175;-79
2023/02/04 23:38:49;;;;;;;11.75;7.90;;;;;;;2.18;64.33;102575.34;10333258;28;20112;-79